createdAt,value
2023-05-23T00:00:21.509Z,10.38
2023-05-23T00:03:23.045Z,10.34
2023-05-23T00:14:56.761Z,10.12
2023-05-23T00:17:29.460Z,10.10
2023-05-23T00:23:50.648Z,10.05
2023-05-23T00:27:24.143Z,10.02
2023-05-23T00:29:56.830Z,9.97
2023-05-23T00:36:23.380Z,9.85
2023-05-23T00:38:55.875Z,9.82
2023-05-23T00:41:37.980Z,9.79
2023-05-23T00:44:55.865Z,9.77
2023-05-23T00:48:14.367Z,9.74
2023-05-23T00:50:53.792Z,9.69
2023-05-23T00:53:26.080Z,9.65
2023-05-23T00:56:05.172Z,9.60
2023-05-23T00:58:37.281Z,9.55
2023-05-23T01:01:16.354Z,9.51
2023-05-23T01:03:48.627Z,9.47
2023-05-23T01:06:21.228Z,9.43
2023-05-23T01:30:50.808Z,9.06
2023-05-23T01:34:38.783Z,9.00
2023-05-23T01:37:20.098Z,8.97
2023-05-23T01:40:50.337Z,8.95
2023-05-23T01:50:57.885Z,8.87
2023-05-23T01:53:32.416Z,8.86
2023-05-23T01:56:05.391Z,8.85
2023-05-23T01:58:37.529Z,8.83
2023-05-23T02:01:10.132Z,8.79
2023-05-23T02:04:08.304Z,8.76
2023-05-23T02:06:47.611Z,8.72
2023-05-23T02:09:19.712Z,8.68
2023-05-23T02:25:09.163Z,8.51
2023-05-23T02:27:41.633Z,8.49
2023-05-23T02:30:20.792Z,8.48
2023-05-23T02:32:54.878Z,8.47
2023-05-23T02:35:33.677Z,8.44
2023-05-23T02:38:06.183Z,8.43
2023-05-23T02:41:33.720Z,8.40
2023-05-23T02:44:05.803Z,8.37
2023-05-23T02:50:20.665Z,8.33
2023-05-23T02:52:52.688Z,8.28
2023-05-23T02:58:58.842Z,8.25
2023-05-23T03:05:06.328Z,8.23
2023-05-23T03:07:44.745Z,8.25
2023-05-23T03:10:16.982Z,8.27
2023-05-23T03:13:24.024Z,8.27
2023-05-23T03:15:56.152Z,8.28
2023-05-23T03:23:00.866Z,8.30
2023-05-23T03:33:54.535Z,8.35
2023-05-23T03:36:28.527Z,8.35
2023-05-23T03:39:00.808Z,8.37
2023-05-23T03:44:56.237Z,8.43
2023-05-23T03:52:01.206Z,8.49
2023-05-23T03:54:48.807Z,8.54
2023-05-23T03:57:31.019Z,8.60
2023-05-23T04:00:12.773Z,8.65
2023-05-23T04:03:32.782Z,8.74
2023-05-23T04:24:26.719Z,9.34
2023-05-23T04:27:00.846Z,9.46
2023-05-23T04:29:36.049Z,9.55
2023-05-23T04:32:53.834Z,9.70
2023-05-23T04:35:26.887Z,9.82
2023-05-23T04:37:58.951Z,9.94
2023-05-23T04:40:34.244Z,10.05
2023-05-23T04:43:46.210Z,10.21
2023-05-23T04:46:42.924Z,10.35
2023-05-23T04:54:13.715Z,10.75
2023-05-23T04:56:45.930Z,10.90
2023-05-23T04:59:18.738Z,11.08
2023-05-23T05:01:50.782Z,11.24
2023-05-23T05:04:43.173Z,11.41
2023-05-23T05:07:16.247Z,11.62
2023-05-23T05:13:41.932Z,12.06
2023-05-23T05:16:14.088Z,12.23
2023-05-23T05:19:07.030Z,12.38
2023-05-23T05:21:39.234Z,12.55
2023-05-23T05:27:58.440Z,12.95
2023-05-23T05:34:18.532Z,13.36
2023-05-23T05:36:50.766Z,13.55
2023-05-23T05:40:07.363Z,13.76
2023-05-23T05:42:41.289Z,14.01
2023-05-23T05:45:14.988Z,14.21
2023-05-23T05:47:48.110Z,14.39
2023-05-23T05:50:52.532Z,14.57
2023-05-23T05:57:56.999Z,15.06
2023-05-23T06:00:30.841Z,15.26
2023-05-23T06:03:23.551Z,15.45
2023-05-23T06:06:00.224Z,15.68
2023-05-23T06:17:38.145Z,16.37
2023-05-23T06:20:11.570Z,16.53
2023-05-23T06:23:06.468Z,16.70
2023-05-23T06:25:38.642Z,16.82
2023-05-23T06:28:11.519Z,16.99
2023-05-23T06:30:46.406Z,17.17
2023-05-23T06:34:45.786Z,17.37
2023-05-23T06:37:18.121Z,17.58
2023-05-23T06:40:51.718Z,17.78
2023-05-23T06:44:26.889Z,18.08
2023-05-23T06:46:59.589Z,18.31
2023-05-23T06:49:41.335Z,18.47
2023-05-23T06:52:13.793Z,18.60
2023-05-23T06:54:54.236Z,18.76
2023-05-23T06:57:41.088Z,18.95
2023-05-23T07:04:04.678Z,19.42
2023-05-23T07:06:39.622Z,19.59
2023-05-23T07:09:19.882Z,19.72
2023-05-23T07:11:51.912Z,19.75
2023-05-23T07:14:48.925Z,19.86
2023-05-23T07:17:21.429Z,20.03
2023-05-23T07:23:28.194Z,20.34
2023-05-23T07:26:43.384Z,20.41
2023-05-23T07:29:15.952Z,20.44
2023-05-23T07:39:44.970Z,20.96
2023-05-23T07:51:11.986Z,21.76
2023-05-23T07:54:41.840Z,21.82
2023-05-23T07:57:11.608Z,21.76
2023-05-23T08:00:14.341Z,21.85
2023-05-23T08:07:21.406Z,22.18
2023-05-23T08:14:14.962Z,22.46
2023-05-23T08:17:13.422Z,22.54
2023-05-23T08:27:39.064Z,23.09
2023-05-23T08:30:37.329Z,23.06
2023-05-23T08:34:10.436Z,23.06
2023-05-23T08:36:45.324Z,23.08
2023-05-23T08:43:11.833Z,23.09
2023-05-23T08:45:40.996Z,23.03
2023-05-23T08:48:50.966Z,23.01
2023-05-23T08:51:23.257Z,23.00
2023-05-23T08:57:39.302Z,23.29
2023-05-23T09:00:43.961Z,23.55
2023-05-23T09:08:07.583Z,23.88
2023-05-23T09:10:37.352Z,23.86
2023-05-23T09:17:39.733Z,24.12
2023-05-23T09:20:17.665Z,24.09
2023-05-23T09:23:00.066Z,24.18
2023-05-23T09:25:51.791Z,24.21
2023-05-23T09:29:11.597Z,24.32
2023-05-23T09:39:32.837Z,24.38
2023-05-23T09:42:05.333Z,24.55
2023-05-23T09:45:32.853Z,24.70
2023-05-23T09:48:06.438Z,24.73
2023-05-23T09:50:52.626Z,24.68
2023-05-23T09:53:25.833Z,24.78
2023-05-23T09:56:00.196Z,24.85
2023-05-23T09:59:02.417Z,24.94
2023-05-23T10:01:35.177Z,25.11
2023-05-23T10:15:14.625Z,25.51
2023-05-23T10:26:42.216Z,25.83
2023-05-23T10:29:14.349Z,26.01
2023-05-23T10:32:16.579Z,26.10
2023-05-23T10:47:07.676Z,26.58
2023-05-23T10:56:41.961Z,26.52
2023-05-23T11:03:19.917Z,26.81
2023-05-23T11:05:56.897Z,26.90
2023-05-23T11:14:00.044Z,27.19
2023-05-23T11:16:30.588Z,27.16
2023-05-23T11:19:25.715Z,27.21
2023-05-23T11:21:57.499Z,27.10
2023-05-23T11:24:50.877Z,27.08
2023-05-23T11:27:27.139Z,27.14
2023-05-23T11:30:06.566Z,27.07
2023-05-23T11:32:38.038Z,27.06
2023-05-23T11:35:11.315Z,27.07
2023-05-23T11:37:40.670Z,27.09
2023-05-23T11:40:27.852Z,27.05
2023-05-23T11:42:57.259Z,27.17
2023-05-23T11:45:27.242Z,27.16
2023-05-23T11:47:56.083Z,27.15
2023-05-23T11:50:25.050Z,27.02
2023-05-23T11:52:55.657Z,26.86
2023-05-23T11:55:24.669Z,26.82
2023-05-23T11:57:57.151Z,26.80
2023-05-23T12:00:26.116Z,26.73
2023-05-23T12:02:55.046Z,26.79
2023-05-23T12:05:24.558Z,26.97
2023-05-23T12:07:53.428Z,27.16
2023-05-23T12:10:28.101Z,27.31
2023-05-23T12:12:57.500Z,27.45
2023-05-23T12:15:27.442Z,27.51
2023-05-23T12:17:57.111Z,27.52
2023-05-23T12:20:31.848Z,27.50
2023-05-23T12:23:03.864Z,27.36
2023-05-23T12:25:40.254Z,27.25
2023-05-23T12:28:13.165Z,27.22
2023-05-23T12:30:45.224Z,27.09
2023-05-23T12:33:14.189Z,26.93
2023-05-23T12:35:44.968Z,26.78
2023-05-23T12:38:17.154Z,26.69
2023-05-23T12:40:45.938Z,26.54
2023-05-23T12:43:16.759Z,26.46
2023-05-23T12:45:45.782Z,26.35
2023-05-23T12:48:14.618Z,26.25
2023-05-23T12:50:43.597Z,26.18
2023-05-23T12:53:12.476Z,26.13
2023-05-23T12:55:43.990Z,26.01
2023-05-23T12:58:49.387Z,25.83
2023-05-23T13:01:20.320Z,25.72
2023-05-23T13:03:49.472Z,25.68
2023-05-23T13:06:18.429Z,25.63
2023-05-23T13:08:48.281Z,25.65
2023-05-23T13:11:17.670Z,25.61
2023-05-23T13:13:47.300Z,25.56
2023-05-23T13:16:16.352Z,25.47
2023-05-23T13:18:45.424Z,25.27
2023-05-23T13:21:14.361Z,25.04
2023-05-23T13:23:43.378Z,24.80
2023-05-23T13:26:13.978Z,24.53
2023-05-23T13:28:42.949Z,24.31
2023-05-23T13:31:12.076Z,24.17
2023-05-23T13:33:41.433Z,24.14
2023-05-23T13:36:10.272Z,24.04
2023-05-23T13:38:39.116Z,23.89
2023-05-23T13:41:08.329Z,23.78
2023-05-23T13:43:37.325Z,23.73
2023-05-23T13:46:06.180Z,23.66
2023-05-23T13:48:35.188Z,23.65
2023-05-23T13:51:04.340Z,23.64
2023-05-23T13:53:33.561Z,23.56
2023-05-23T13:56:03.214Z,23.54
2023-05-23T13:58:32.939Z,23.46
2023-05-23T14:01:02.080Z,23.38
2023-05-23T14:03:30.927Z,23.31
2023-05-23T14:05:59.707Z,23.25
2023-05-23T14:08:28.679Z,23.21
2023-05-23T14:10:59.793Z,23.20
2023-05-23T14:13:28.632Z,23.17
2023-05-23T14:15:57.877Z,23.11
2023-05-23T14:18:27.000Z,23.06
2023-05-23T14:20:56.385Z,23.03
2023-05-23T14:23:25.492Z,22.94
2023-05-23T14:25:54.538Z,22.90
2023-05-23T14:28:23.771Z,22.78
2023-05-23T14:30:52.918Z,22.78
2023-05-23T14:33:22.017Z,22.85
2023-05-23T14:35:51.020Z,22.89
2023-05-23T14:38:23.342Z,22.96
2023-05-23T14:40:54.183Z,23.01
2023-05-23T14:43:23.347Z,23.08
2023-05-23T14:45:52.565Z,23.21
2023-05-23T14:48:22.128Z,23.42
2023-05-23T14:50:51.248Z,23.55
2023-05-23T14:53:21.910Z,23.59
2023-05-23T14:55:51.008Z,23.66
2023-05-23T14:58:21.155Z,23.66
2023-05-23T15:00:50.227Z,23.68
2023-05-23T15:03:19.587Z,23.76
2023-05-23T15:05:49.522Z,23.78
2023-05-23T15:08:19.273Z,23.77
2023-05-23T15:10:50.997Z,23.77
2023-05-23T15:13:20.152Z,23.73
2023-05-23T15:15:49.187Z,23.70
2023-05-23T15:18:31.734Z,23.64
2023-05-23T15:21:11.840Z,23.58
2023-05-23T15:23:43.371Z,23.54
2023-05-23T15:26:13.688Z,23.55
2023-05-23T15:28:42.902Z,23.51
2023-05-23T15:31:12.084Z,23.46
2023-05-23T15:33:41.147Z,23.44
2023-05-23T15:36:12.548Z,23.35
2023-05-23T15:38:41.571Z,23.28
2023-05-23T15:41:11.023Z,23.28
2023-05-23T15:43:40.193Z,23.23
2023-05-23T15:46:09.409Z,23.18
2023-05-23T15:48:38.713Z,23.11
2023-05-23T15:51:07.710Z,23.09
2023-05-23T15:53:47.861Z,23.08
2023-05-23T15:56:26.060Z,23.04
2023-05-23T15:58:55.421Z,22.96
2023-05-23T16:01:24.821Z,22.85
2023-05-23T16:03:54.104Z,22.80
2023-05-23T16:06:24.739Z,22.78
2023-05-23T16:08:54.123Z,22.76
2023-05-23T16:11:23.586Z,22.74
2023-05-23T16:13:53.053Z,22.64
2023-05-23T16:16:22.207Z,22.53
2023-05-23T16:18:54.416Z,22.05
2023-05-23T16:21:23.451Z,21.52
2023-05-23T16:23:52.699Z,20.93
2023-05-23T16:26:21.725Z,20.63
2023-05-23T16:28:50.641Z,20.43
2023-05-23T16:31:25.210Z,20.25
2023-05-23T16:33:54.662Z,20.14
2023-05-23T16:36:23.804Z,20.03
2023-05-23T16:38:54.706Z,19.93
2023-05-23T16:41:27.814Z,19.87
2023-05-23T16:43:56.989Z,19.87
2023-05-23T16:46:26.454Z,19.94
2023-05-23T16:48:55.885Z,20.02
2023-05-23T16:51:25.233Z,20.03
2023-05-23T16:53:54.215Z,20.05
2023-05-23T16:56:23.516Z,20.11
2023-05-23T16:59:03.229Z,20.15
2023-05-23T17:01:35.184Z,20.20
2023-05-23T17:04:04.678Z,20.25
2023-05-23T17:06:33.988Z,20.34
2023-05-23T17:09:03.371Z,20.38
2023-05-23T17:11:32.312Z,20.42
2023-05-23T17:14:01.545Z,20.47
2023-05-23T17:16:33.259Z,20.51
2023-05-23T17:19:02.744Z,20.58
2023-05-23T17:21:32.332Z,20.60
2023-05-23T17:24:03.564Z,20.59
2023-05-23T17:26:33.964Z,20.61
2023-05-23T17:29:03.244Z,20.63
2023-05-23T17:31:32.525Z,20.67
2023-05-23T17:34:01.931Z,20.67
2023-05-23T17:36:32.100Z,20.63
2023-05-23T17:39:04.411Z,20.61
2023-05-23T17:41:33.763Z,20.61
2023-05-23T17:44:03.644Z,20.56
2023-05-23T17:46:32.898Z,20.46
2023-05-23T17:49:02.198Z,20.42
2023-05-23T17:51:31.767Z,20.41
2023-05-23T17:54:02.368Z,20.41
2023-05-23T17:56:31.628Z,20.38
2023-05-23T17:59:04.928Z,20.35
2023-05-23T18:01:34.131Z,20.31
2023-05-23T18:04:03.626Z,20.26
2023-05-23T18:06:33.336Z,20.21
2023-05-23T18:09:02.678Z,20.19
2023-05-23T18:11:31.652Z,20.15
2023-05-23T18:14:02.300Z,20.12
2023-05-23T18:16:31.731Z,20.09
2023-05-23T18:19:01.288Z,20.04
2023-05-23T18:21:30.997Z,19.99
2023-05-23T18:24:00.708Z,19.97
2023-05-23T18:26:30.368Z,19.95
2023-05-23T18:29:00.787Z,19.91
2023-05-23T18:31:32.317Z,19.85
2023-05-23T18:34:01.449Z,19.79
2023-05-23T18:36:31.759Z,19.75
2023-05-23T18:39:00.631Z,19.71
2023-05-23T18:41:29.489Z,19.68
2023-05-23T18:44:00.473Z,19.63
2023-05-23T18:46:30.284Z,19.58
2023-05-23T18:48:59.659Z,19.52
2023-05-23T18:51:29.108Z,19.48
2023-05-23T18:53:58.742Z,19.44
2023-05-23T18:56:27.729Z,19.41
2023-05-23T18:58:56.892Z,19.40
2023-05-23T19:01:27.795Z,19.38
2023-05-23T19:03:57.927Z,19.37
2023-05-23T19:06:28.932Z,19.34
2023-05-23T19:08:58.035Z,19.28
2023-05-23T19:11:27.493Z,19.23
2023-05-23T19:13:56.998Z,19.12
2023-05-23T19:16:29.440Z,19.05
2023-05-23T19:18:58.832Z,18.99
2023-05-23T19:21:29.147Z,18.93
2023-05-23T19:23:59.260Z,18.92
2023-05-23T19:26:31.556Z,18.86
2023-05-23T19:29:06.161Z,18.82
2023-05-23T19:31:37.374Z,18.77
2023-05-23T19:34:07.619Z,18.72
2023-05-23T19:36:37.451Z,18.64
2023-05-23T19:39:06.795Z,18.55
2023-05-23T19:41:38.346Z,18.48
2023-05-23T19:44:07.650Z,18.42
2023-05-23T19:49:47.239Z,18.29
2023-05-23T19:52:22.958Z,18.20
2023-05-23T19:54:58.385Z,18.15
2023-05-23T19:57:31.251Z,18.10
2023-05-23T20:00:03.754Z,18.03
2023-05-23T20:02:37.654Z,17.98
2023-05-23T20:05:12.130Z,17.93
2023-05-23T20:07:44.729Z,17.89
2023-05-23T20:10:17.728Z,17.86
2023-05-23T20:12:50.151Z,17.83
2023-05-23T20:15:38.164Z,17.79
2023-05-23T20:18:12.360Z,17.77
2023-05-23T20:20:47.409Z,17.73
2023-05-23T20:23:21.193Z,17.70
2023-05-23T20:25:54.275Z,17.68
2023-05-23T20:28:27.762Z,17.69
2023-05-23T20:31:03.366Z,17.68
2023-05-23T20:33:39.239Z,17.67
2023-05-23T20:36:12.805Z,17.67
2023-05-23T20:38:47.985Z,17.67
2023-05-23T20:41:29.513Z,17.68
2023-05-23T20:44:02.196Z,17.69
2023-05-23T20:46:36.908Z,17.70
2023-05-23T20:49:17.835Z,17.70
2023-05-23T20:51:50.627Z,17.69
2023-05-23T20:54:24.515Z,17.69
2023-05-23T20:56:56.654Z,17.69
2023-05-23T20:59:30.506Z,17.68
2023-05-23T21:02:02.815Z,17.65
2023-05-23T21:04:35.274Z,17.61
2023-05-23T21:07:07.723Z,17.61
2023-05-23T21:09:39.876Z,17.60
2023-05-23T21:12:14.738Z,17.59
2023-05-23T21:17:54.151Z,17.58
2023-05-23T21:20:26.229Z,17.55
2023-05-23T21:22:58.644Z,17.52
2023-05-23T21:25:30.877Z,17.50
2023-05-23T21:28:02.982Z,17.49
2023-05-23T21:30:35.214Z,17.47
2023-05-23T21:33:07.510Z,17.44
2023-05-23T21:35:39.657Z,17.41
2023-05-23T21:38:11.900Z,17.38
2023-05-23T21:40:44.378Z,17.35
2023-05-23T21:43:16.819Z,17.33
2023-05-23T21:45:48.938Z,17.31
2023-05-23T21:48:21.106Z,17.30
2023-05-23T21:50:53.195Z,17.30
2023-05-23T21:53:25.300Z,17.29
2023-05-23T21:55:57.476Z,17.29
2023-05-23T21:58:29.666Z,17.30
2023-05-23T22:01:02.240Z,17.30
2023-05-23T22:03:34.730Z,17.29
2023-05-23T22:06:07.863Z,17.28
2023-05-23T22:08:42.211Z,17.29
2023-05-23T22:11:14.375Z,17.28
2023-05-23T22:13:46.700Z,17.28
2023-05-23T22:16:18.965Z,17.28
2023-05-23T22:18:52.127Z,17.27
2023-05-23T22:21:24.321Z,17.27
2023-05-23T22:23:57.811Z,17.28
2023-05-23T22:26:29.883Z,17.24
2023-05-23T22:29:02.309Z,17.20
2023-05-23T22:31:35.959Z,17.17
2023-05-23T22:34:08.522Z,17.13
2023-05-23T22:36:40.515Z,17.13
2023-05-23T22:39:13.914Z,17.15
2023-05-23T22:41:46.029Z,17.15
2023-05-23T22:44:18.345Z,17.16
2023-05-23T22:46:52.270Z,17.17
2023-05-23T22:49:26.570Z,17.19
2023-05-23T22:51:59.370Z,17.20
2023-05-23T22:54:31.453Z,17.21
2023-05-23T22:57:03.614Z,17.21
2023-05-23T22:59:35.771Z,17.22
2023-05-23T23:02:08.149Z,17.21
2023-05-23T23:04:41.934Z,17.18
2023-05-23T23:07:13.976Z,17.16
2023-05-23T23:09:46.201Z,17.14
2023-05-23T23:12:18.423Z,17.13
2023-05-23T23:14:50.799Z,17.12
2023-05-23T23:17:22.918Z,17.09
2023-05-23T23:19:55.053Z,17.10
2023-05-23T23:22:27.315Z,17.10
2023-05-23T23:25:00.733Z,17.08
2023-05-23T23:27:33.150Z,17.07
2023-05-23T23:30:05.450Z,17.04
2023-05-23T23:32:37.592Z,17.01
2023-05-23T23:35:10.549Z,16.99
2023-05-23T23:37:42.708Z,17.00
2023-05-23T23:40:18.818Z,17.00
2023-05-23T23:42:50.986Z,16.99
2023-05-23T23:45:23.596Z,16.97
2023-05-23T23:47:56.644Z,16.94
2023-05-23T23:50:28.824Z,16.93
2023-05-23T23:53:01.414Z,16.91
2023-05-23T23:55:33.550Z,16.88
2023-05-23T23:58:05.605Z,16.88
